Time;durP1;ratioP1;P1;durP2;ratioP2;P2;SDS_P1;SDS_P2;PMS_P1;PMS_P2;Temp;Humidity;BMP_temperature;BMP_pressure;BME280_temperature;BME280_humidity;BME280_pressure;Samples;Min_cycle;Max_cycle;Signal;HPM_P1;HPM_P2
2023/09/20 00:01:51;;;;;;;5.80;1.90;;;;;;;17.93;100.00;100771.16;5039337;28;20040;-71
2023/09/20 00:04:19;;;;;;;6.45;2.00;;;;;;;17.93;100.00;100771.94;5045377;28;20063;-71
2023/09/20 00:06:46;;;;;;;6.60;1.90;;;;;;;17.95;100.00;100766.47;5040477;28;20053;-72
2023/09/20 00:09:14;;;;;;;12.23;2.38;;;;;;;17.94;100.00;100768.28;5037276;28;20052;-71
2023/09/20 00:11:43;;;;;;;7.32;2.53;;;;;;;17.96;100.00;100765.47;5034923;28;20080;-70
2023/09/20 00:14:09;;;;;;;6.78;2.05;;;;;;;17.97;100.00;100765.25;5055368;28;20052;-71
2023/09/20 00:16:36;;;;;;;6.57;2.10;;;;;;;17.96;100.00;100766.25;5045452;28;20059;-70
2023/09/20 00:19:03;;;;;;;8.88;2.00;;;;;;;17.92;100.00;100758.91;5028054;28;20456;-69
2023/09/20 00:21:29;;;;;;;7.80;2.17;;;;;;;17.97;100.00;100767.91;5039542;28;20044;-70
2023/09/20 00:23:56;;;;;;;14.00;2.45;;;;;;;17.98;100.00;100771.38;5041357;28;20150;-71
2023/09/20 00:26:23;;;;;;;4.85;2.40;;;;;;;17.99;100.00;100773.00;5055288;28;20059;-69
2023/09/20 00:28:50;;;;;;;9.95;2.22;;;;;;;17.99;100.00;100767.69;5035635;28;20063;-71
2023/09/20 00:31:16;;;;;;;5.85;1.80;;;;;;;18.00;100.00;100771.19;5046596;28;20056;-70
2023/09/20 00:33:43;;;;;;;6.80;2.20;;;;;;;17.98;100.00;100766.88;5040392;28;20044;-71
2023/09/20 00:36:18;;;;;;;10.52;2.47;;;;;;;18.02;100.00;100763.84;5035602;28;20398;-70
2023/09/20 00:38:45;;;;;;;7.85;2.40;;;;;;;17.99;100.00;100759.75;5043505;28;20056;-70
2023/09/20 00:41:11;;;;;;;7.38;2.40;;;;;;;18.00;100.00;100758.75;5033900;28;20041;-71
2023/09/20 00:43:38;;;;;;;8.40;2.38;;;;;;;18.01;100.00;100772.81;5050952;28;20110;-71
2023/09/20 00:46:07;;;;;;;8.02;2.35;;;;;;;17.98;100.00;100761.59;5042827;28;20048;-72
2023/09/20 00:48:34;;;;;;;7.40;2.33;;;;;;;18.01;100.00;100767.50;5037897;28;20106;-70
2023/09/20 00:51:01;;;;;;;7.68;2.38;;;;;;;18.02;100.00;100762.00;5052319;28;20059;-71
2023/09/20 00:53:28;;;;;;;6.30;1.83;;;;;;;18.04;100.00;100757.31;5038752;28;20554;-70
2023/09/20 00:55:55;;;;;;;10.68;2.80;;;;;;;18.08;100.00;100750.59;5043057;28;20085;-71
2023/09/20 00:58:23;;;;;;;9.80;1.90;;;;;;;18.03;100.00;100750.38;5046368;28;20652;-71
2023/09/20 01:00:54;;;;;;;10.18;2.50;;;;;;;18.01;100.00;100757.72;5046843;28;20041;-70
2023/09/20 01:03:23;;;;;;;5.50;1.90;;;;;;;17.96;100.00;100752.19;5039568;28;20141;-70
2023/09/20 01:05:51;;;;;;;8.43;2.15;;;;;;;17.92;100.00;100753.59;5051531;28;20126;-70
2023/09/20 01:08:19;;;;;;;7.82;2.33;;;;;;;17.86;100.00;100762.34;5052137;28;20307;-71
2023/09/20 01:10:48;;;;;;;11.50;2.55;;;;;;;17.88;100.00;100763.78;5038332;28;20053;-70
2023/09/20 01:13:18;;;;;;;7.00;2.50;;;;;;;17.85;100.00;100761.50;5047204;28;20049;-71
2023/09/20 01:15:46;;;;;;;8.18;2.50;;;;;;;17.77;100.00;100751.84;5042532;28;20060;-70
2023/09/20 01:18:12;;;;;;;10.45;2.40;;;;;;;17.74;100.00;100741.63;5054179;28;20483;-70
2023/09/20 01:20:40;;;;;;;9.80;2.50;;;;;;;17.70;100.00;100743.03;5047711;28;20199;-71
2023/09/20 01:23:07;;;;;;;10.30;2.35;;;;;;;17.67;100.00;100750.56;5061368;28;20477;-71
2023/09/20 01:25:36;;;;;;;8.98;2.20;;;;;;;17.62;100.00;100755.63;5049838;28;20065;-71
2023/09/20 01:28:05;;;;;;;6.22;2.22;;;;;;;17.57;100.00;100740.31;5039618;28;20045;-72
2023/09/20 01:30:36;;;;;;;9.73;2.30;;;;;;;17.57;100.00;100742.94;5039703;28;20068;-70
2023/09/20 01:33:06;;;;;;;7.45;2.17;;;;;;;17.50;100.00;100742.09;5036925;28;20386;-70
2023/09/20 01:35:34;;;;;;;10.02;2.45;;;;;;;17.44;100.00;100751.63;5043039;28;20449;-72
2023/09/20 01:38:06;;;;;;;10.68;2.65;;;;;;;17.41;100.00;100735.31;5043260;28;20096;-70
2023/09/20 01:40:34;;;;;;;12.68;2.40;;;;;;;17.39;100.00;100735.50;5047975;28;20094;-71
2023/09/20 01:43:05;;;;;;;7.90;2.35;;;;;;;17.35;100.00;100735.06;5051365;28;20049;-71
2023/09/20 01:45:34;;;;;;;5.55;2.08;;;;;;;17.31;100.00;100725.03;5039004;28;20053;-71
2023/09/20 01:48:05;;;;;;;7.93;2.42;;;;;;;17.29;100.00;100721.72;5048014;28;20049;-71
2023/09/20 01:50:32;;;;;;;11.35;2.05;;;;;;;17.24;100.00;100719.69;5039256;28;20060;-70
2023/09/20 01:53:02;;;;;;;6.45;2.03;;;;;;;17.20;100.00;100715.78;5049915;28;20134;-71
2023/09/20 01:55:31;;;;;;;11.48;2.20;;;;;;;17.13;100.00;100728.16;5043090;28;20586;-70
2023/09/20 01:58:05;;;;;;;8.77;2.67;;;;;;;17.11;100.00;100725.72;5039992;28;20163;-70
2023/09/20 02:00:39;;;;;;;7.72;2.10;;;;;;;17.12;100.00;100718.56;5049077;28;20577;-71
2023/09/20 02:03:16;;;;;;;8.23;2.28;;;;;;;17.08;100.00;100715.47;5039826;28;20417;-71
2023/09/20 02:05:48;;;;;;;6.60;2.40;;;;;;;17.08;100.00;100712.00;5048568;28;20044;-70
2023/09/20 02:08:16;;;;;;;8.15;2.40;;;;;;;17.05;100.00;100715.84;5038949;28;20135;-72
2023/09/20 02:10:44;;;;;;;10.43;2.55;;;;;;;17.01;100.00;100709.28;5039708;28;20044;-70
2023/09/20 02:13:11;;;;;;;6.67;2.27;;;;;;;17.02;100.00;100707.50;5031573;28;20094;-70
2023/09/20 02:15:41;;;;;;;9.38;2.83;;;;;;;17.02;100.00;100708.28;5045076;28;20545;-70
2023/09/20 02:18:09;;;;;;;6.65;2.00;;;;;;;16.99;100.00;100703.38;5048985;28;20052;-72
2023/09/20 02:20:37;;;;;;;7.50;2.72;;;;;;;16.99;100.00;100703.38;5048571;28;20122;-71
2023/09/20 02:23:12;;;;;;;8.85;2.50;;;;;;;16.96;100.00;100709.88;5050674;28;20051;-70
2023/09/20 02:25:40;;;;;;;9.38;2.40;;;;;;;16.91;100.00;100714.09;5038554;28;20059;-70
2023/09/20 02:28:07;;;;;;;7.43;2.45;;;;;;;16.88;100.00;100709.22;5045990;28;20109;-70
2023/09/20 02:30:37;;;;;;;7.82;2.03;;;;;;;16.83;100.00;100711.59;5038178;28;20045;-70
2023/09/20 02:33:07;;;;;;;9.93;2.10;;;;;;;16.81;100.00;100703.81;5049041;28;20048;-72
2023/09/20 02:35:34;;;;;;;9.30;2.30;;;;;;;16.77;100.00;100706.00;5045355;28;20063;-70
2023/09/20 02:38:04;;;;;;;6.68;2.03;;;;;;;16.72;100.00;100715.53;5033171;28;20135;-70
2023/09/20 02:40:34;;;;;;;6.60;2.22;;;;;;;16.68;100.00;100706.31;5041472;28;20056;-70
2023/09/20 02:43:08;;;;;;;8.27;2.67;;;;;;;16.61;100.00;100711.56;5043603;28;21175;-71
2023/09/20 02:45:36;;;;;;;6.25;2.10;;;;;;;16.63;100.00;100706.09;5049682;28;20044;-70
2023/09/20 02:48:06;;;;;;;10.63;3.03;;;;;;;16.56;100.00;100693.59;5045587;28;20315;-71
2023/09/20 02:50:34;;;;;;;5.45;1.80;;;;;;;16.56;100.00;100692.75;5056535;28;20056;-70
2023/09/20 02:53:00;;;;;;;6.05;2.20;;;;;;;16.51;100.00;100685.41;5044976;28;20565;-70
2023/09/20 02:55:28;;;;;;;7.45;2.13;;;;;;;16.49;100.00;100684.78;5035915;28;20076;-71
2023/09/20 02:57:54;;;;;;;8.07;2.22;;;;;;;16.48;100.00;100690.25;5047545;28;20155;-70
2023/09/20 03:00:28;;;;;;;7.55;2.03;;;;;;;16.49;100.00;100691.91;5049946;28;20044;-70
2023/09/20 03:02:57;;;;;;;7.57;2.00;;;;;;;16.44;100.00;100681.03;5054290;28;20057;-71
2023/09/20 03:05:26;;;;;;;6.40;2.30;;;;;;;16.47;100.00;100681.50;5037225;28;20044;-71
2023/09/20 03:07:55;;;;;;;;;;;;;;;16.43;100.00;100674.94;5040930;28;20052;-70
2023/09/20 03:10:23;;;;;;;8.25;2.53;;;;;;;16.38;100.00;100674.66;5049899;28;19931;-70
2023/09/20 03:12:52;;;;;;;7.00;2.33;;;;;;;16.39;100.00;100668.38;5040162;28;20115;-70
2023/09/20 03:15:23;;;;;;;9.95;2.42;;;;;;;16.39;100.00;100678.97;5045005;28;20422;-69
2023/09/20 03:18:03;;;;;;;6.95;2.30;;;;;;;16.37;100.00;100673.03;5043647;28;20103;-70
2023/09/20 03:20:32;;;;;;;6.57;2.15;;;;;;;16.36;100.00;100671.38;5035985;28;20054;-70
2023/09/20 03:23:02;;;;;;;7.60;2.10;;;;;;;16.36;100.00;100668.75;5044227;28;20052;-70
2023/09/20 03:25:34;;;;;;;10.55;1.85;;;;;;;16.35;100.00;100665.28;5045544;28;20625;-70
2023/09/20 03:28:00;;;;;;;5.78;2.25;;;;;;;16.30;100.00;100654.44;5046074;28;20485;-71
2023/09/20 03:30:28;;;;;;;7.45;2.28;;;;;;;16.31;100.00;100660.56;5039349;28;20094;-70
2023/09/20 03:32:56;;;;;;;6.72;1.77;;;;;;;16.32;100.00;100654.25;5049062;28;20156;-71
2023/09/20 03:35:22;;;;;;;;;;;;;;;16.36;100.00;100660.81;5031411;28;20048;-72
2023/09/20 03:37:49;;;;;;;6.82;2.25;;;;;;;16.33;100.00;100666.50;5044547;28;19940;-72
2023/09/20 03:40:21;;;;;;;7.13;1.83;;;;;;;16.37;100.00;100655.31;5038686;28;20081;-70
2023/09/20 03:42:49;;;;;;;6.05;2.17;;;;;;;16.35;100.00;100667.94;5045611;28;20056;-71
2023/09/20 03:45:16;;;;;;;5.75;2.20;;;;;;;16.39;100.00;100660.44;5042892;28;20485;-71
2023/09/20 03:47:49;;;;;;;7.78;2.75;;;;;;;16.38;100.00;100664.06;5038547;28;20266;-70
2023/09/20 03:50:19;;;;;;;6.75;2.30;;;;;;;16.43;100.00;100660.88;5042907;28;20045;-71
2023/09/20 03:52:46;;;;;;;5.88;1.90;;;;;;;16.45;100.00;100662.31;5041592;28;20252;-72
2023/09/20 03:55:13;;;;;;;6.57;2.47;;;;;;;16.44;100.00;100654.56;5050971;28;20045;-72
2023/09/20 03:57:40;;;;;;;6.95;2.10;;;;;;;16.44;100.00;100655.38;5039704;28;20052;-73
2023/09/20 04:00:15;;;;;;;8.05;2.55;;;;;;;16.46;100.00;100660.50;5048916;28;20049;-71
2023/09/20 04:02:42;;;;;;;12.10;2.97;;;;;;;16.49;100.00;100660.94;5045407;28;20052;-70
2023/09/20 04:05:13;;;;;;;;;;;;;;;16.53;100.00;100659.53;5035245;28;20079;-70
2023/09/20 04:07:52;;;;;;;8.57;2.30;;;;;;;16.52;100.00;100647.31;5045787;28;20369;-70
2023/09/20 04:10:19;;;;;;;5.70;2.50;;;;;;;16.52;100.00;100644.66;5044255;28;20048;-71
2023/09/20 04:12:47;;;;;;;9.75;2.63;;;;;;;16.57;100.00;100655.50;5051382;28;20056;-71
2023/09/20 04:15:14;;;;;;;5.50;2.28;;;;;;;16.59;100.00;100650.84;5043593;28;20138;-69
2023/09/20 04:17:42;;;;;;;5.45;2.28;;;;;;;16.60;100.00;100643.72;5039426;28;20060;-71
2023/09/20 04:20:11;;;;;;;9.10;2.15;;;;;;;16.60;100.00;100641.06;5042767;28;20234;-70
2023/09/20 04:22:40;;;;;;;;;;;;;;;16.64;100.00;100639.69;5041112;28;20407;-71
2023/09/20 04:25:10;;;;;;;7.85;2.28;;;;;;;16.65;100.00;100643.16;5055129;28;19977;-71
2023/09/20 04:27:38;;;;;;;10.00;2.40;;;;;;;16.65;100.00;100636.03;5039083;28;20144;-70
2023/09/20 04:30:07;;;;;;;9.48;3.05;;;;;;;16.65;100.00;100635.22;5043077;28;20722;-71
2023/09/20 04:32:36;;;;;;;10.65;3.15;;;;;;;16.65;100.00;100633.38;5049950;28;20086;-70
2023/09/20 04:35:04;;;;;;;8.98;2.45;;;;;;;16.59;100.00;100634.16;5041389;28;20056;-70
2023/09/20 04:37:31;;;;;;;6.15;2.25;;;;;;;16.59;100.00;100636.78;5044474;28;20045;-70
2023/09/20 04:39:58;;;;;;;7.07;2.50;;;;;;;16.56;100.00;100635.34;5044925;28;20417;-70
2023/09/20 04:42:25;;;;;;;11.52;2.70;;;;;;;16.52;100.00;100630.59;5045028;28;20057;-71
2023/09/20 04:44:51;;;;;;;6.50;2.17;;;;;;;16.48;100.00;100640.75;5049938;28;20145;-71
2023/09/20 04:47:18;;;;;;;6.65;2.22;;;;;;;16.41;100.00;100632.75;5044398;28;20516;-71
2023/09/20 04:49:45;;;;;;;6.53;2.40;;;;;;;16.41;100.00;100632.75;5046835;28;20115;-71
2023/09/20 04:52:15;;;;;;;6.45;2.10;;;;;;;16.40;100.00;100630.28;5037165;28;20052;-71
2023/09/20 04:54:44;;;;;;;7.32;2.25;;;;;;;16.40;100.00;100633.75;5055343;28;20048;-72
2023/09/20 04:57:13;;;;;;;5.10;2.20;;;;;;;16.36;100.00;100636.97;5046752;28;20139;-70
2023/09/20 04:59:42;;;;;;;8.32;2.92;;;;;;;16.31;100.00;100642.03;5053369;28;20061;-71
2023/09/20 05:02:10;;;;;;;10.52;2.58;;;;;;;16.31;100.00;100629.63;5039748;28;20051;-71
2023/09/20 05:04:38;;;;;;;7.60;2.15;;;;;;;16.29;100.00;100630.78;5047225;28;20053;-70
2023/09/20 05:07:07;;;;;;;5.90;2.30;;;;;;;16.25;100.00;100640.13;5044477;28;20059;-70
2023/09/20 05:09:35;;;;;;;5.20;2.10;;;;;;;16.23;100.00;100656.22;5041039;28;20474;-71
2023/09/20 05:12:04;;;;;;;8.50;2.50;;;;;;;16.23;100.00;100642.97;5046274;28;20318;-70
2023/09/20 05:14:31;;;;;;;7.43;2.63;;;;;;;16.23;100.00;100640.31;5046112;28;20072;-71
2023/09/20 05:16:57;;;;;;;6.88;2.40;;;;;;;16.24;100.00;100638.50;5055823;28;20049;-71
2023/09/20 05:19:24;;;;;;;9.40;2.47;;;;;;;16.24;100.00;100639.31;5045110;28;20127;-71
2023/09/20 05:21:50;;;;;;;14.55;2.55;;;;;;;16.24;100.00;100646.44;5038902;28;20111;-71
2023/09/20 05:24:17;;;;;;;8.10;2.40;;;;;;;16.20;100.00;100641.50;5046321;28;20591;-71
2023/09/20 05:26:44;;;;;;;8.90;2.58;;;;;;;16.20;100.00;100638.84;5035303;28;20052;-72
2023/09/20 05:29:10;;;;;;;9.05;2.65;;;;;;;16.17;100.00;100644.53;5042048;28;20064;-70
2023/09/20 05:31:37;;;;;;;8.82;2.50;;;;;;;16.20;100.00;100640.69;5041964;28;20044;-72
2023/09/20 05:34:05;;;;;;;6.93;2.78;;;;;;;16.17;100.00;100641.91;5045853;28;20684;-70
2023/09/20 05:36:32;;;;;;;8.90;2.30;;;;;;;16.11;100.00;100641.81;5052234;28;20187;-72
2023/09/20 05:38:59;;;;;;;11.73;2.47;;;;;;;16.14;100.00;100644.09;5042847;28;20559;-71
2023/09/20 05:41:27;;;;;;;8.88;2.53;;;;;;;16.08;100.00;100640.38;5047056;28;20213;-71
2023/09/20 05:43:53;;;;;;;10.93;2.67;;;;;;;16.07;100.00;100629.97;5039433;28;20052;-70
2023/09/20 05:46:20;;;;;;;8.55;2.22;;;;;;;16.10;100.00;100633.06;5042968;28;20237;-71
2023/09/20 05:48:48;;;;;;;11.25;2.30;;;;;;;16.06;100.00;100637.09;5040335;28;20064;-70
2023/09/20 05:51:17;;;;;;;7.78;2.35;;;;;;;16.12;100.00;100630.22;5050745;28;20108;-70
2023/09/20 05:53:43;;;;;;;9.85;2.50;;;;;;;16.11;100.00;100634.72;5055176;28;20053;-71
2023/09/20 05:56:12;;;;;;;10.98;2.35;;;;;;;16.14;100.00;100634.31;5048664;28;20550;-71
2023/09/20 05:58:42;;;;;;;8.80;2.42;;;;;;;16.14;100.00;100625.56;5053610;28;20138;-71
2023/09/20 06:01:09;;;;;;;7.35;2.28;;;;;;;16.23;100.00;100627.09;5051422;28;20122;-72
2023/09/20 06:03:36;;;;;;;6.55;2.58;;;;;;;16.24;100.00;100622.63;5048950;28;20048;-70
2023/09/20 06:06:07;;;;;;;11.43;2.65;;;;;;;16.26;100.00;100633.84;5050561;28;20048;-71
2023/09/20 06:08:35;;;;;;;10.95;2.38;;;;;;;16.30;100.00;100629.81;5050222;28;20472;-70
2023/09/20 06:11:04;;;;;;;7.88;2.28;;;;;;;16.34;100.00;100631.06;5038555;28;21126;-70
2023/09/20 06:13:32;;;;;;;6.35;2.67;;;;;;;16.41;100.00;100631.94;5050686;28;20649;-70
2023/09/20 06:16:06;;;;;;;7.22;2.72;;;;;;;16.45;100.00;100625.25;5056923;28;20509;-70
2023/09/20 06:18:32;;;;;;;11.07;2.30;;;;;;;16.47;100.00;100623.25;5047521;28;20114;-70
2023/09/20 06:21:00;;;;;;;3.63;2.13;;;;;;;16.53;100.00;100622.47;5047916;28;20060;-71
2023/09/20 06:23:27;;;;;;;9.75;2.40;;;;;;;16.54;100.00;100626.78;5043962;28;20059;-70
2023/09/20 06:25:53;;;;;;;6.20;2.30;;;;;;;16.60;100.00;100620.72;5049056;28;20048;-70
2023/09/20 06:28:20;;;;;;;6.60;2.45;;;;;;;16.66;100.00;100615.66;5051491;28;20672;-71
2023/09/20 06:30:47;;;;;;;7.60;2.85;;;;;;;16.67;100.00;100612.81;5043158;28;20465;-71
2023/09/20 06:33:14;;;;;;;8.60;2.30;;;;;;;16.75;100.00;100619.81;5056878;28;20386;-70
2023/09/20 06:35:43;;;;;;;9.75;2.75;;;;;;;16.77;100.00;100609.84;5045283;28;20060;-70
2023/09/20 06:38:10;;;;;;;13.60;2.80;;;;;;;16.78;100.00;100606.19;5047621;28;20063;-70
2023/09/20 06:40:39;;;;;;;8.25;2.20;;;;;;;16.81;100.00;100616.38;5052209;28;20102;-70
2023/09/20 06:43:09;;;;;;;6.53;2.30;;;;;;;16.80;100.00;100610.28;5052076;28;20051;-72
2023/09/20 06:45:36;;;;;;;7.07;2.40;;;;;;;16.88;100.00;100611.19;5056528;28;20055;-70
2023/09/20 06:48:04;;;;;;;5.95;2.15;;;;;;;16.96;100.00;100609.19;5052530;28;20040;-71
2023/09/20 06:50:30;;;;;;;8.48;3.00;;;;;;;16.94;100.00;100611.22;5046015;28;20437;-70
2023/09/20 06:52:59;;;;;;;5.47;2.28;;;;;;;17.00;100.00;100617.59;5033683;28;20052;-70
2023/09/20 06:55:25;;;;;;;5.72;2.40;;;;;;;17.02;100.00;100612.91;5053447;28;20052;-70
2023/09/20 06:57:53;;;;;;;8.05;2.80;;;;;;;17.02;100.00;100601.50;5055749;28;20044;-69
2023/09/20 07:00:39;;;;;;;7.38;2.42;;;;;;;17.02;100.00;100612.91;5057070;28;20055;-70
2023/09/20 07:03:05;;;;;;;6.15;2.35;;;;;;;17.05;100.00;100611.69;5060677;28;20049;-70
2023/09/20 07:05:32;;;;;;;5.32;2.33;;;;;;;17.07;100.00;100607.00;5047895;28;20102;-70
2023/09/20 07:07:59;;;;;;;7.80;2.65;;;;;;;17.12;100.00;100626.63;5055767;28;20048;-73
2023/09/20 07:10:28;;;;;;;7.00;3.00;;;;;;;17.08;100.00;100621.91;5070586;28;20044;-71
2023/09/20 07:12:55;;;;;;;5.43;2.40;;;;;;;17.11;100.00;100611.75;5071214;28;20043;-70
2023/09/20 07:15:25;;;;;;;7.72;2.40;;;;;;;17.22;100.00;100615.69;5062608;28;20044;-70
2023/09/20 07:17:58;;;;;;;7.00;2.38;;;;;;;17.28;100.00;100606.13;5054366;28;20057;-69
2023/09/20 07:20:26;;;;;;;8.95;2.80;;;;;;;17.32;100.00;100616.13;5048224;28;20267;-71
2023/09/20 07:22:53;;;;;;;6.97;2.78;;;;;;;17.36;100.00;100612.06;5047822;28;20055;-70
2023/09/20 07:25:21;;;;;;;10.50;2.90;;;;;;;17.43;100.00;100611.31;5054917;28;20071;-71
2023/09/20 07:27:50;;;;;;;8.35;2.33;;;;;;;17.49;100.00;100605.22;5051463;28;20505;-69
2023/09/20 07:30:19;;;;;;;4.65;2.47;;;;;;;17.56;100.00;100608.69;5058288;28;20053;-70
2023/09/20 07:32:50;;;;;;;10.07;3.50;;;;;;;17.64;100.00;100605.91;5051208;28;20127;-72
2023/09/20 07:35:47;;;;;;;4.75;2.30;;;;;;;17.61;100.00;100616.09;5050058;28;20075;-71
2023/09/20 07:38:36;;;;;;;8.30;2.30;;;;;;;17.63;100.00;100616.69;5047019;28;20515;-70
2023/09/20 07:41:17;;;;;;;7.13;2.42;;;;;;;17.64;100.00;100615.66;5056607;28;20040;-70
2023/09/20 07:43:45;;;;;;;9.55;2.67;;;;;;;17.65;100.00;100609.38;5049653;28;20119;-71
2023/09/20 07:46:13;;;;;;;6.78;2.53;;;;;;;17.68;100.00;100609.78;5039043;28;20064;-71
2023/09/20 07:48:48;;;;;;;4.82;2.22;;;;;;;17.74;100.00;100609.00;5048523;28;20139;-70
2023/09/20 07:51:24;;;;;;;4.18;1.88;;;;;;;17.76;100.00;100606.16;5043090;28;20048;-71
2023/09/20 07:53:55;;;;;;;8.57;2.47;;;;;;;17.82;100.00;100613.31;5056193;28;20048;-71
2023/09/20 07:56:23;;;;;;;5.28;2.17;;;;;;;17.85;100.00;100607.63;5041367;28;20126;-71
2023/09/20 07:58:51;;;;;;;5.32;2.10;;;;;;;17.90;100.00;100597.25;5041198;28;20076;-71
2023/09/20 08:01:22;;;;;;;7.05;2.15;;;;;;;17.94;100.00;100616.22;5050159;28;20048;-71
2023/09/20 08:03:51;;;;;;;5.15;2.10;;;;;;;18.01;100.00;100605.63;5045093;28;20044;-72
2023/09/20 08:06:20;;;;;;;3.58;2.17;;;;;;;18.06;100.00;100595.25;5051645;28;20061;-70
2023/09/20 08:08:50;;;;;;;5.93;2.17;;;;;;;18.14;100.00;100590.53;5047703;28;20044;-70
2023/09/20 08:11:17;;;;;;;6.10;1.98;;;;;;;18.28;100.00;100586.06;5040689;28;20095;-70
2023/09/20 08:13:49;;;;;;;5.40;2.20;;;;;;;18.36;100.00;100593.81;5038513;28;20076;-70
2023/09/20 08:16:15;;;;;;;5.00;1.77;;;;;;;18.40;100.00;100617.34;5050482;28;20062;-71
2023/09/20 08:21:29;;;;;;;7.82;2.28;;;;;;;18.44;100.00;100584.84;5053527;28;20103;-71
2023/09/20 09:00:22;;;;;;;4.88;1.85;;;;;;;19.19;100.00;100636.94;5042412;28;20049;-72
2023/09/20 09:02:52;;;;;;;5.10;2.00;;;;;;;19.09;100.00;100630.22;5045641;28;20135;-70
2023/09/20 09:05:21;;;;;;;4.90;1.70;;;;;;;19.03;100.00;100648.81;5032681;28;20110;-71
2023/09/20 09:07:49;;;;;;;4.68;1.80;;;;;;;19.08;100.00;100638.41;5038020;28;20048;-71
2023/09/20 09:10:16;;;;;;;6.80;1.88;;;;;;;19.03;100.00;100639.00;5055119;28;20044;-70
2023/09/20 09:12:43;;;;;;;6.63;2.23;;;;;;;19.09;100.00;100634.72;5042876;28;20420;-70
2023/09/20 09:15:12;;;;;;;4.03;1.95;;;;;;;18.99;100.00;100626.34;5052158;28;20056;-70
2023/09/20 09:17:40;;;;;;;5.75;2.10;;;;;;;19.15;100.00;100620.59;5049611;28;20048;-70
2023/09/20 09:20:10;;;;;;;;;;;;;;;19.21;100.00;100626.91;5043615;28;20178;-70
2023/09/20 09:22:41;;;;;;;3.78;1.90;;;;;;;19.27;100.00;100624.25;5045741;28;20014;-71
2023/09/20 09:25:12;;;;;;;4.68;1.90;;;;;;;19.34;100.00;100633.00;5059106;28;20141;-71
2023/09/20 09:27:40;;;;;;;4.82;2.00;;;;;;;19.52;100.00;100627.06;5057460;28;20582;-70
2023/09/20 09:30:12;;;;;;;3.47;1.65;;;;;;;19.67;100.00;100633.94;5046408;28;20148;-70
2023/09/20 09:32:40;;;;;;;5.78;2.30;;;;;;;19.59;100.00;100635.00;5041506;28;20429;-70
2023/09/20 09:35:07;;;;;;;4.93;2.45;;;;;;;19.66;100.00;100634.97;5042436;28;20060;-71
2023/09/20 09:37:36;;;;;;;3.78;2.00;;;;;;;19.80;100.00;100633.94;5049367;28;20059;-71
2023/09/20 09:40:05;;;;;;;8.18;2.35;;;;;;;19.89;100.00;100642.47;5039895;28;20405;-71
2023/09/20 09:42:32;;;;;;;6.63;2.22;;;;;;;19.91;100.00;100637.75;5049678;28;20045;-71
2023/09/20 09:45:01;;;;;;;6.50;2.60;;;;;;;19.90;100.00;100628.16;5054781;28;20087;-70
2023/09/20 09:47:30;;;;;;;7.18;2.70;;;;;;;19.84;100.00;100635.13;5042220;28;20044;-70
2023/09/20 09:50:01;;;;;;;4.38;2.28;;;;;;;19.81;100.00;100619.56;5045512;28;20045;-70
2023/09/20 09:52:29;;;;;;;8.68;2.88;;;;;;;19.89;100.00;100624.66;5046244;28;20138;-70
2023/09/20 09:54:56;;;;;;;6.13;2.50;;;;;;;19.87;100.00;100618.72;5051462;28;20049;-71
2023/09/20 09:57:23;;;;;;;8.00;2.78;;;;;;;20.02;100.00;100610.47;5048440;28;20049;-71
2023/09/20 09:59:52;;;;;;;10.27;2.80;;;;;;;20.00;100.00;100604.53;5048178;28;20124;-72
2023/09/20 10:02:20;;;;;;;6.18;2.78;;;;;;;19.98;100.00;100613.78;5058143;28;20051;-71
2023/09/20 10:04:52;;;;;;;5.72;2.55;;;;;;;19.84;100.00;100616.50;5056866;28;20056;-71
2023/09/20 10:07:22;;;;;;;7.85;2.60;;;;;;;19.92;100.00;100604.78;5065458;28;20628;-71
2023/09/20 10:09:54;;;;;;;7.28;3.38;;;;;;;19.87;100.00;100616.06;5053922;28;20053;-71
2023/09/20 10:12:22;;;;;;;8.07;2.63;;;;;;;19.95;100.00;100602.53;5065209;28;20513;-70
2023/09/20 10:14:50;;;;;;;5.20;2.42;;;;;;;19.98;100.00;100617.25;5037062;28;20088;-70
2023/09/20 10:17:21;;;;;;;5.57;2.88;;;;;;;20.05;100.00;100601.22;5056592;28;20296;-71
2023/09/20 10:19:53;;;;;;;4.43;2.25;;;;;;;20.23;100.00;100614.63;5066309;28;20052;-71
2023/09/20 10:22:22;;;;;;;6.60;2.22;;;;;;;20.16;100.00;100587.22;5045447;28;20488;-72
2023/09/20 10:25:01;;;;;;;4.82;2.30;;;;;;;20.17;100.00;100598.69;5065501;28;20044;-71
2023/09/20 10:27:30;;;;;;;7.15;2.60;;;;;;;20.18;100.00;100605.66;5057469;28;20044;-70
2023/09/20 10:30:10;;;;;;;8.05;2.80;;;;;;;20.01;100.00;100606.16;5052840;28;20345;-71
2023/09/20 10:32:47;;;;;;;6.00;2.28;;;;;;;20.03;100.00;100603.28;5039235;28;20059;-71
2023/09/20 10:35:21;;;;;;;4.25;2.03;;;;;;;20.14;100.00;100594.63;5060844;28;20052;-71
2023/09/20 10:38:17;;;;;;;7.70;2.28;;;;;;;20.14;100.00;100597.28;5057464;28;20052;-71
2023/09/20 10:40:44;;;;;;;5.15;2.08;;;;;;;20.25;100.00;100595.78;5046541;28;20061;-71
2023/09/20 10:43:17;;;;;;;6.45;2.38;;;;;;;20.28;100.00;100590.00;5045900;28;20151;-70
2023/09/20 10:45:50;;;;;;;5.88;2.63;;;;;;;20.33;100.00;100584.88;5045045;28;20056;-70
2023/09/20 10:48:26;;;;;;;6.90;2.50;;;;;;;20.51;100.00;100573.44;5063279;28;20053;-70
2023/09/20 10:50:54;;;;;;;25.85;17.88;;;;;;;20.72;100.00;100581.06;5057302;28;20056;-71
2023/09/20 10:53:22;;;;;;;5.80;2.35;;;;;;;20.77;99.11;100566.28;5063045;28;20368;-70
2023/09/20 10:55:49;;;;;;;4.65;2.17;;;;;;;20.97;98.24;100566.88;5054291;28;20076;-73
2023/09/20 10:58:23;;;;;;;6.13;1.88;;;;;;;21.08;95.86;100579.47;5049934;28;20553;-72
2023/09/20 11:00:50;;;;;;;4.30;1.88;;;;;;;21.04;95.63;100564.97;5054611;28;20668;-73
2023/09/20 11:03:18;;;;;;;3.28;1.80;;;;;;;20.93;95.13;100566.53;5044780;28;20496;-73
2023/09/20 11:05:45;;;;;;;;;;;;;;;20.97;93.54;100564.22;5066676;28;20439;-72
2023/09/20 11:08:16;;;;;;;6.23;1.80;;;;;;;21.07;95.50;100577.88;5053132;28;19925;-74
2023/09/20 11:10:46;;;;;;;4.40;1.85;;;;;;;21.08;93.21;100563.47;5051959;28;20052;-74
2023/09/20 11:13:14;;;;;;;4.15;1.75;;;;;;;21.20;94.79;100558.22;5049266;28;20072;-72
2023/09/20 11:15:43;;;;;;;;;;;;;;;21.44;93.23;100553.03;5065823;28;20592;-73
2023/09/20 11:18:16;;;;;;;5.03;1.90;;;;;;;21.60;90.56;100543.59;5059834;28;19920;-73
2023/09/20 11:20:43;;;;;;;6.68;1.90;;;;;;;21.55;91.56;100554.16;5061820;28;20056;-73
2023/09/20 11:23:10;;;;;;;6.30;1.83;;;;;;;21.70;90.53;100552.69;5053972;28;20049;-73
2023/09/20 11:25:37;;;;;;;9.73;1.83;;;;;;;21.73;89.41;100548.75;5050209;28;20048;-72
2023/09/20 11:28:07;;;;;;;5.32;2.38;;;;;;;21.77;90.53;100549.13;5062852;28;20075;-71
2023/09/20 11:30:34;;;;;;;2.47;1.50;;;;;;;21.80;92.87;100554.81;5053171;28;20064;-71
2023/09/20 11:33:02;;;;;;;2.33;1.57;;;;;;;21.69;91.37;100550.25;5045265;28;20429;-72
2023/09/20 11:35:39;;;;;;;4.90;1.88;;;;;;;21.58;90.17;100551.00;5056594;28;20306;-72
2023/09/20 11:38:08;;;;;;;4.25;1.85;;;;;;;21.62;91.70;100552.19;5061868;28;20055;-71
2023/09/20 11:40:36;;;;;;;4.53;1.90;;;;;;;21.56;92.51;100559.25;5049048;28;20056;-71
2023/09/20 11:43:05;;;;;;;4.15;1.42;;;;;;;21.47;91.96;100566.75;5059058;28;20052;-72
2023/09/20 11:45:41;;;;;;;4.85;1.75;;;;;;;21.57;93.86;100542.19;5065406;28;20132;-72
2023/09/20 11:48:24;;;;;;;2.83;1.55;;;;;;;21.51;91.52;100545.78;5056180;28;20071;-72
2023/09/20 11:50:51;;;;;;;3.83;1.40;;;;;;;21.60;92.47;100533.75;5055667;28;20075;-73
2023/09/20 11:53:18;;;;;;;5.72;1.80;;;;;;;21.62;90.79;100533.50;5049319;28;20056;-75
2023/09/20 11:55:45;;;;;;;3.65;1.60;;;;;;;21.80;89.21;100525.44;5051495;28;20087;-72
2023/09/20 11:58:19;;;;;;;5.13;1.45;;;;;;;21.83;89.44;100519.63;5044949;28;20052;-71
2023/09/20 12:00:47;;;;;;;4.22;1.23;;;;;;;21.86;88.79;100511.19;5054733;28;20080;-72
2023/09/20 12:03:13;;;;;;;5.43;1.40;;;;;;;21.88;86.79;100516.31;5055202;28;20063;-72
2023/09/20 12:05:42;;;;;;;4.32;1.45;;;;;;;21.91;87.42;100508.66;5044184;28;20055;-73
2023/09/20 12:08:09;;;;;;;5.25;1.90;;;;;;;21.86;84.69;100529.06;5060104;28;20517;-72